createdAt,value
2022-10-19T00:00:51.149Z,54.95
2022-10-19T00:01:51.210Z,54.79
2022-10-19T00:02:51.131Z,56.40
2022-10-19T00:03:51.164Z,56.88
2022-10-19T00:04:51.135Z,56.07
2022-10-19T00:05:51.113Z,56.07
2022-10-19T00:06:51.094Z,54.95
2022-10-19T00:07:51.092Z,57.36
2022-10-19T00:08:51.067Z,55.91
2022-10-19T00:09:51.067Z,55.43
2022-10-19T00:10:51.088Z,54.95
2022-10-19T00:11:51.051Z,56.40
2022-10-19T00:12:51.061Z,55.75
2022-10-19T00:13:51.036Z,53.98
2022-10-19T00:14:51.021Z,56.07
2022-10-19T00:15:51.013Z,54.62
2022-10-19T00:16:51.029Z,53.82
2022-10-19T00:17:51.048Z,54.62
2022-10-19T00:18:50.987Z,57.52
2022-10-19T00:19:50.979Z,56.40
2022-10-19T00:20:50.972Z,56.88
2022-10-19T00:22:50.970Z,56.07
2022-10-19T00:23:50.955Z,54.14
2022-10-19T00:24:50.944Z,57.52
2022-10-19T00:25:50.953Z,55.75
2022-10-19T00:26:50.947Z,55.91
2022-10-19T00:27:50.942Z,56.07
2022-10-19T00:28:51.025Z,56.07
2022-10-19T00:29:50.898Z,54.30
2022-10-19T00:30:50.908Z,55.59
2022-10-19T00:31:50.882Z,57.52
2022-10-19T00:32:50.887Z,54.79
2022-10-19T00:33:50.886Z,54.95
2022-10-19T00:34:50.878Z,55.43
2022-10-19T00:35:50.849Z,55.59
2022-10-19T00:36:50.853Z,54.62
2022-10-19T00:37:50.825Z,54.95
2022-10-19T00:38:50.837Z,54.95
2022-10-19T00:40:50.815Z,56.40
2022-10-19T00:41:50.798Z,55.43
2022-10-19T00:42:50.797Z,55.75
2022-10-19T00:43:50.782Z,55.11
2022-10-19T00:44:50.794Z,54.62
2022-10-19T00:45:50.765Z,55.11
2022-10-19T00:46:50.753Z,54.95
2022-10-19T00:47:50.746Z,54.95
2022-10-19T00:48:50.747Z,55.75
2022-10-19T00:49:50.731Z,56.56
2022-10-19T00:50:50.740Z,54.30
2022-10-19T00:51:50.713Z,56.07
2022-10-19T00:52:50.702Z,55.11
2022-10-19T00:53:50.698Z,56.24
2022-10-19T00:54:50.692Z,54.46
2022-10-19T00:55:50.681Z,54.62
2022-10-19T00:56:50.704Z,56.40
2022-10-19T00:58:50.666Z,53.98
2022-10-19T00:59:50.654Z,56.40
2022-10-19T01:00:50.683Z,56.56
2022-10-19T01:01:50.642Z,55.27
2022-10-19T01:02:50.694Z,55.91
2022-10-19T01:03:50.634Z,55.75
2022-10-19T01:04:50.613Z,55.91
2022-10-19T01:05:50.607Z,57.04
2022-10-19T01:07:50.592Z,54.79
2022-10-19T01:08:50.607Z,54.95
2022-10-19T01:09:50.582Z,52.69
2022-10-19T01:10:50.574Z,54.30
2022-10-19T01:11:50.564Z,56.07
2022-10-19T01:12:50.557Z,56.40
2022-10-19T01:13:50.556Z,56.24
2022-10-19T01:14:50.574Z,56.07
2022-10-19T01:15:50.636Z,55.91
2022-10-19T01:16:50.521Z,55.27
2022-10-19T01:17:50.517Z,55.27
2022-10-19T01:18:50.536Z,55.27
2022-10-19T01:19:50.493Z,57.85
2022-10-19T01:20:50.521Z,56.07
2022-10-19T01:21:50.483Z,56.07
2022-10-19T01:22:50.475Z,53.98
2022-10-19T01:23:50.471Z,55.27
2022-10-19T01:24:50.505Z,56.72
2022-10-19T01:25:50.460Z,57.85
2022-10-19T01:26:50.480Z,56.40
2022-10-19T01:27:50.446Z,57.20
2022-10-19T01:28:50.535Z,56.07
2022-10-19T01:29:50.421Z,57.20
2022-10-19T01:30:50.441Z,56.40
2022-10-19T01:31:50.420Z,56.24
2022-10-19T01:32:50.397Z,56.07
2022-10-19T01:33:50.451Z,55.91
2022-10-19T01:34:50.387Z,57.04
2022-10-19T01:35:50.380Z,56.56
2022-10-19T01:36:50.375Z,57.52
2022-10-19T01:37:50.365Z,61.23
2022-10-19T01:38:50.380Z,58.17
2022-10-19T01:39:50.363Z,58.81
2022-10-19T01:40:50.392Z,57.36
2022-10-19T01:41:50.331Z,57.69
2022-10-19T01:42:50.375Z,57.52
2022-10-19T01:43:50.320Z,56.07
2022-10-19T01:44:50.312Z,56.56
2022-10-19T01:45:50.309Z,54.95
2022-10-19T01:46:50.308Z,55.59
2022-10-19T01:47:50.288Z,59.46
2022-10-19T01:48:50.279Z,58.49
2022-10-19T01:49:50.274Z,57.52
2022-10-19T01:50:50.269Z,57.85
2022-10-19T01:51:50.294Z,56.40
2022-10-19T01:52:50.255Z,55.91
2022-10-19T01:53:50.240Z,57.85
2022-10-19T01:54:50.233Z,60.10
2022-10-19T01:55:50.222Z,56.88
2022-10-19T01:56:50.234Z,58.33
2022-10-19T01:57:50.222Z,58.17
2022-10-19T01:58:50.206Z,57.85
2022-10-19T01:59:50.195Z,59.46
2022-10-19T02:00:50.276Z,58.33
2022-10-19T02:01:50.177Z,59.46
2022-10-19T02:02:50.277Z,57.20
2022-10-19T02:03:50.180Z,59.14
2022-10-19T02:04:50.165Z,58.49
2022-10-19T02:05:50.170Z,59.94
2022-10-19T02:06:50.202Z,59.62
2022-10-19T02:07:50.138Z,60.59
2022-10-19T02:08:50.130Z,58.97
2022-10-19T02:09:50.111Z,56.40
2022-10-19T02:10:50.121Z,56.40
2022-10-19T02:11:51.336Z,57.69
2022-10-19T02:12:50.116Z,56.88
2022-10-19T02:13:50.107Z,58.49
2022-10-19T02:14:50.102Z,58.17
2022-10-19T02:15:50.074Z,59.46
2022-10-19T02:16:50.066Z,57.52
2022-10-19T02:17:50.061Z,59.94
2022-10-19T02:18:50.084Z,58.97
2022-10-19T02:19:50.040Z,58.81
2022-10-19T02:20:50.041Z,58.33
2022-10-19T02:21:50.032Z,59.30
2022-10-19T02:22:50.030Z,61.07
2022-10-19T02:23:51.887Z,57.85
2022-10-19T02:24:50.026Z,60.10
2022-10-19T02:25:50.001Z,59.94
2022-10-19T02:26:50.028Z,58.17
2022-10-19T02:27:50.020Z,59.30
2022-10-19T02:28:49.982Z,59.30
2022-10-19T02:29:49.968Z,56.56
2022-10-19T02:30:49.973Z,56.40
2022-10-19T02:31:49.960Z,62.36
2022-10-19T02:32:49.959Z,56.72
2022-10-19T02:33:49.968Z,57.85
2022-10-19T02:34:49.937Z,55.91
2022-10-19T02:35:49.925Z,56.24
2022-10-19T02:36:49.921Z,57.52
2022-10-19T02:37:49.913Z,59.62
2022-10-19T02:38:49.909Z,58.17
2022-10-19T02:39:49.921Z,59.62
2022-10-19T02:40:49.898Z,60.75
2022-10-19T02:41:49.886Z,62.04
2022-10-19T02:42:49.903Z,61.07
2022-10-19T02:43:49.890Z,60.26
2022-10-19T02:44:49.871Z,58.49
2022-10-19T02:45:49.877Z,59.46
2022-10-19T02:46:49.877Z,58.17
2022-10-19T02:47:49.841Z,58.17
2022-10-19T02:48:49.845Z,59.94
2022-10-19T02:49:49.834Z,61.07
2022-10-19T02:50:49.822Z,59.62
2022-10-19T02:51:49.815Z,55.75
2022-10-19T02:52:49.833Z,58.49
2022-10-19T02:53:49.802Z,59.94
2022-10-19T02:54:49.792Z,57.85
2022-10-19T02:55:49.785Z,57.36
2022-10-19T02:56:49.781Z,61.07
2022-10-19T02:57:49.822Z,59.30
2022-10-19T02:58:49.798Z,58.33
2022-10-19T02:59:49.757Z,58.49
2022-10-19T03:00:49.873Z,60.59
2022-10-19T03:01:49.742Z,61.07
2022-10-19T03:02:49.738Z,58.65
2022-10-19T03:03:49.780Z,58.01
2022-10-19T03:04:49.774Z,60.59
2022-10-19T03:05:49.707Z,59.30
2022-10-19T03:06:49.709Z,59.14
2022-10-19T03:07:49.695Z,59.14
2022-10-19T03:08:49.700Z,58.01
2022-10-19T03:09:49.687Z,60.26
2022-10-19T03:10:49.691Z,58.01
2022-10-19T03:11:49.667Z,60.10
2022-10-19T03:12:49.651Z,59.30
2022-10-19T03:13:49.649Z,61.71
2022-10-19T03:14:49.661Z,59.62
2022-10-19T03:15:49.632Z,60.26
2022-10-19T03:16:49.620Z,62.04
2022-10-19T03:17:49.636Z,58.49
2022-10-19T03:18:49.603Z,58.81
2022-10-19T03:19:49.604Z,59.46
2022-10-19T03:20:49.596Z,60.10
2022-10-19T03:21:49.581Z,57.69
2022-10-19T03:22:49.604Z,59.78
2022-10-19T03:23:49.588Z,58.81
2022-10-19T03:24:49.601Z,58.17
2022-10-19T03:25:49.556Z,62.20
2022-10-19T03:26:49.551Z,61.39
2022-10-19T03:27:49.539Z,61.23
2022-10-19T03:28:49.559Z,60.91
2022-10-19T03:29:49.531Z,60.59
2022-10-19T03:30:49.532Z,60.10
2022-10-19T03:31:49.510Z,60.75
2022-10-19T03:32:49.505Z,60.42
2022-10-19T03:33:49.517Z,59.78
2022-10-19T03:34:49.490Z,61.39
2022-10-19T03:35:49.471Z,60.59
2022-10-19T03:36:49.481Z,58.81
2022-10-19T03:37:49.470Z,60.91
2022-10-19T03:38:49.468Z,59.62
2022-10-19T03:39:49.465Z,62.84
2022-10-19T03:40:49.452Z,60.59
2022-10-19T03:41:49.437Z,61.07
2022-10-19T03:42:49.427Z,61.07
2022-10-19T03:43:49.475Z,61.07
2022-10-19T03:44:49.413Z,59.46
2022-10-19T03:45:49.413Z,62.20
2022-10-19T03:46:49.401Z,61.87
2022-10-19T03:47:49.447Z,59.94
2022-10-19T03:48:49.383Z,60.10
2022-10-19T03:49:49.411Z,59.94
2022-10-19T03:50:49.369Z,62.36
2022-10-19T03:51:49.361Z,60.10
2022-10-19T03:52:49.435Z,59.62
2022-10-19T03:53:49.361Z,61.23
2022-10-19T03:54:49.331Z,61.71
2022-10-19T03:55:49.327Z,63.33
2022-10-19T03:56:49.355Z,61.55
2022-10-19T03:57:49.335Z,60.10
2022-10-19T03:58:49.309Z,61.55
2022-10-19T03:59:49.320Z,61.23
2022-10-19T04:00:49.353Z,62.20
2022-10-19T04:01:49.310Z,64.13
2022-10-19T04:02:49.284Z,62.36
2022-10-19T04:03:49.277Z,62.20
2022-10-19T04:04:49.271Z,62.04
2022-10-19T04:05:49.261Z,61.87
2022-10-19T04:06:49.251Z,63.81
2022-10-19T04:07:49.263Z,63.16
2022-10-19T04:08:49.240Z,62.84
2022-10-19T04:09:49.243Z,61.71
2022-10-19T04:10:49.249Z,63.33
2022-10-19T04:11:49.214Z,63.49
2022-10-19T04:12:53.664Z,59.78
2022-10-19T04:13:49.199Z,61.55
2022-10-19T04:14:57.693Z,61.39
2022-10-19T04:15:50.202Z,62.68
2022-10-19T04:16:49.202Z,62.68
2022-10-19T04:17:49.173Z,62.52
2022-10-19T04:18:49.170Z,62.20
2022-10-19T04:19:49.158Z,63.49
2022-10-19T04:20:49.161Z,63.81
2022-10-19T04:21:49.146Z,59.78
2022-10-19T04:22:49.163Z,59.78
2022-10-19T04:23:49.127Z,63.33
2022-10-19T04:24:49.121Z,63.81
2022-10-19T04:25:49.120Z,61.07
2022-10-19T04:26:49.105Z,60.10
2022-10-19T04:27:49.096Z,60.75
2022-10-19T04:28:49.154Z,63.65
2022-10-19T04:29:49.101Z,60.10
2022-10-19T04:30:49.065Z,60.26
2022-10-19T04:31:49.069Z,62.20
2022-10-19T04:32:49.063Z,60.59
2022-10-19T04:33:49.060Z,62.52
2022-10-19T04:34:49.064Z,61.71
2022-10-19T04:35:49.037Z,62.20
2022-10-19T04:36:49.034Z,62.04
2022-10-19T04:37:49.018Z,61.55
2022-10-19T04:38:49.017Z,63.16
2022-10-19T04:39:49.000Z,61.71
2022-10-19T04:40:49.017Z,61.39
2022-10-19T04:41:48.985Z,63.16
2022-10-19T04:42:48.981Z,60.91
2022-10-19T04:43:48.981Z,60.59
2022-10-19T04:44:48.969Z,62.36
2022-10-19T04:45:48.954Z,59.94
2022-10-19T04:46:48.971Z,62.68
2022-10-19T04:47:48.938Z,60.59
2022-10-19T04:48:48.937Z,61.07
2022-10-19T04:49:48.927Z,61.71
2022-10-19T04:50:48.925Z,63.00
2022-10-19T04:51:48.923Z,61.71
2022-10-19T04:52:48.913Z,61.87
2022-10-19T04:53:48.894Z,61.39
2022-10-19T04:54:48.908Z,60.10
2022-10-19T04:55:48.881Z,62.04
2022-10-19T04:56:48.876Z,63.97
2022-10-19T04:57:48.872Z,61.55
2022-10-19T04:58:48.851Z,62.52
2022-10-19T04:59:48.838Z,61.23
2022-10-19T05:00:48.875Z,62.04
2022-10-19T05:01:48.852Z,62.52
2022-10-19T05:02:48.833Z,60.91
2022-10-19T05:03:48.851Z,60.10
2022-10-19T05:04:48.857Z,60.75
2022-10-19T05:05:48.796Z,60.91
2022-10-19T05:06:48.788Z,60.10
2022-10-19T05:07:48.787Z,62.36
2022-10-19T05:08:48.784Z,61.87
2022-10-19T05:09:48.791Z,61.71
2022-10-19T05:10:48.781Z,61.39
2022-10-19T05:11:48.754Z,60.42
2022-10-19T05:12:48.741Z,60.75
2022-10-19T05:13:48.734Z,63.49
2022-10-19T05:14:48.796Z,60.26
2022-10-19T05:15:48.721Z,60.59
2022-10-19T05:16:48.724Z,62.36
2022-10-19T05:17:48.708Z,63.33
2022-10-19T05:18:48.705Z,62.20
2022-10-19T05:19:48.700Z,63.65
2022-10-19T05:20:48.710Z,61.71
2022-10-19T05:21:48.681Z,61.87
2022-10-19T05:22:48.682Z,63.33
2022-10-19T05:23:48.673Z,62.84
2022-10-19T05:24:48.667Z,62.20
2022-10-19T05:25:48.668Z,62.84
2022-10-19T05:26:48.667Z,62.04
2022-10-19T05:27:48.640Z,62.36
2022-10-19T05:28:48.685Z,62.20
2022-10-19T05:29:48.624Z,62.36
2022-10-19T05:30:49.126Z,60.91
2022-10-19T05:31:48.640Z,60.10
2022-10-19T05:32:48.603Z,62.20
2022-10-19T05:33:48.595Z,63.65
2022-10-19T05:34:48.585Z,63.00
2022-10-19T05:35:48.587Z,61.71
2022-10-19T05:36:48.569Z,62.84
2022-10-19T05:37:48.582Z,61.87
2022-10-19T05:38:48.558Z,63.00
2022-10-19T05:39:48.545Z,62.20
2022-10-19T05:40:52.954Z,61.87
2022-10-19T05:41:49.529Z,62.36
2022-10-19T05:42:48.530Z,62.04
2022-10-19T05:43:48.527Z,60.59
2022-10-19T05:44:48.542Z,62.68
2022-10-19T05:45:48.499Z,62.04
2022-10-19T05:46:48.494Z,63.00
2022-10-19T05:47:48.490Z,62.52
2022-10-19T05:48:48.481Z,62.20
2022-10-19T05:49:48.473Z,59.94
2022-10-19T05:50:48.484Z,60.10
2022-10-19T05:51:48.453Z,61.07
2022-10-19T05:52:48.455Z,60.91
2022-10-19T05:53:48.466Z,61.39
2022-10-19T05:54:48.445Z,61.71
2022-10-19T05:55:48.442Z,61.55
2022-10-19T05:56:48.423Z,62.84
2022-10-19T05:57:48.461Z,61.07
2022-10-19T05:58:48.399Z,61.71
2022-10-19T05:59:48.397Z,63.16
2022-10-19T06:00:48.390Z,61.55
2022-10-19T06:01:48.434Z,62.84
2022-10-19T06:02:48.373Z,59.78
2022-10-19T06:03:48.384Z,61.71
2022-10-19T06:04:48.389Z,62.36
2022-10-19T06:05:48.362Z,59.94
2022-10-19T06:06:48.350Z,60.75
2022-10-19T06:07:48.344Z,60.59
2022-10-19T06:08:48.366Z,63.81
2022-10-19T06:09:48.337Z,63.33
2022-10-19T06:10:48.337Z,59.94
2022-10-19T06:11:48.319Z,62.04
2022-10-19T06:12:48.305Z,63.00
2022-10-19T06:13:48.324Z,63.33
2022-10-19T06:14:48.360Z,61.71
2022-10-19T06:15:48.294Z,61.55
2022-10-19T06:16:48.281Z,61.39
2022-10-19T06:17:48.263Z,62.36
2022-10-19T06:18:48.274Z,62.20
2022-10-19T06:19:48.255Z,62.84
2022-10-19T06:20:48.273Z,62.84
2022-10-19T06:21:48.264Z,60.75
2022-10-19T06:22:48.234Z,59.94
2022-10-19T06:23:48.237Z,60.10
2022-10-19T06:24:48.225Z,58.97
2022-10-19T06:25:48.214Z,61.71
2022-10-19T06:26:48.226Z,62.20
2022-10-19T06:27:48.228Z,63.81
2022-10-19T06:28:48.194Z,60.91
2022-10-19T06:29:48.179Z,63.33
2022-10-19T06:30:48.260Z,62.52
2022-10-19T06:31:48.183Z,62.68
2022-10-19T06:32:48.261Z,60.42
2022-10-19T06:33:49.471Z,62.04
2022-10-19T06:34:48.841Z,60.42
2022-10-19T06:35:48.153Z,60.10
2022-10-19T06:36:48.136Z,61.07
2022-10-19T06:37:48.121Z,62.20
2022-10-19T06:38:48.150Z,62.20
2022-10-19T06:39:48.145Z,62.04
2022-10-19T06:40:48.105Z,60.91
2022-10-19T06:41:48.101Z,61.55
2022-10-19T06:42:48.110Z,60.10
2022-10-19T06:43:48.090Z,59.62
2022-10-19T06:44:48.100Z,62.04
2022-10-19T06:45:48.093Z,62.84
2022-10-19T06:46:48.067Z,61.87
2022-10-19T06:48:48.045Z,62.04
2022-10-19T06:49:48.070Z,62.52
2022-10-19T06:50:48.034Z,63.49
2022-10-19T06:51:48.030Z,62.68
2022-10-19T06:52:48.014Z,61.71
2022-10-19T06:53:49.708Z,62.84
2022-10-19T06:54:49.014Z,61.07
2022-10-19T06:55:48.000Z,61.71
2022-10-19T06:57:47.978Z,61.71
2022-10-19T06:58:47.973Z,60.91
2022-10-19T06:59:50.186Z,61.07
2022-10-19T07:00:48.012Z,60.91
2022-10-19T07:01:47.976Z,59.62
2022-10-19T07:02:47.939Z,59.46
2022-10-19T07:03:47.929Z,59.62
2022-10-19T07:04:47.929Z,60.10
2022-10-19T07:05:47.916Z,59.62
2022-10-19T07:06:47.915Z,59.46
2022-10-19T07:07:47.947Z,58.49
2022-10-19T07:08:47.894Z,60.91
2022-10-19T07:09:47.887Z,60.75
2022-10-19T07:10:47.882Z,61.55
2022-10-19T07:11:47.862Z,60.59
2022-10-19T07:12:47.865Z,61.23
2022-10-19T07:13:47.880Z,62.52
2022-10-19T07:14:47.849Z,62.52
2022-10-19T07:15:47.834Z,62.68
2022-10-19T07:16:47.852Z,61.55
2022-10-19T07:17:47.830Z,61.07
2022-10-19T07:18:47.825Z,61.07
2022-10-19T07:19:47.813Z,61.87
2022-10-19T07:20:47.800Z,60.42
2022-10-19T07:21:47.785Z,59.94
2022-10-19T07:22:47.805Z,59.94
2022-10-19T07:23:47.799Z,59.62
2022-10-19T07:24:47.769Z,60.59
2022-10-19T07:25:47.762Z,61.87
2022-10-19T07:26:47.770Z,60.59
2022-10-19T07:27:47.755Z,61.23
2022-10-19T07:28:47.740Z,61.55
2022-10-19T07:29:47.742Z,59.46
2022-10-19T07:30:47.724Z,61.71
2022-10-19T07:31:47.712Z,59.78
2022-10-19T07:32:47.703Z,58.81
2022-10-19T07:33:47.692Z,61.07
2022-10-19T07:34:47.712Z,61.39
2022-10-19T07:35:47.690Z,60.59
2022-10-19T07:36:47.675Z,60.10
2022-10-19T07:37:47.669Z,59.94
2022-10-19T07:38:47.667Z,59.62
2022-10-19T07:39:47.650Z,59.14
2022-10-19T07:44:19.268Z,61.71
2022-10-19T07:45:19.252Z,62.36
2022-10-19T07:46:19.274Z,61.23
2022-10-19T07:47:19.264Z,58.97
2022-10-19T07:48:19.237Z,60.59
2022-10-19T07:49:19.229Z,59.30
2022-10-19T07:50:19.232Z,60.10
2022-10-19T07:51:19.252Z,60.91
2022-10-19T07:52:19.233Z,60.75
2022-10-19T07:53:19.197Z,61.87
2022-10-19T07:54:19.196Z,59.62
2022-10-19T07:55:19.209Z,59.94
2022-10-19T07:56:19.186Z,61.55
2022-10-19T07:57:19.182Z,59.62
2022-10-19T07:58:19.291Z,60.59
2022-10-19T07:59:19.176Z,60.26
2022-10-19T08:00:19.155Z,60.10
2022-10-19T08:01:19.136Z,60.26
2022-10-19T08:02:19.163Z,60.10
2022-10-19T08:04:13.848Z,59.94
2022-10-19T08:05:20.188Z,60.42
2022-10-19T08:06:19.095Z,59.62
2022-10-19T08:07:19.111Z,59.62
2022-10-19T08:08:19.083Z,60.75
2022-10-19T08:09:47.342Z,61.07
2022-10-19T08:10:20.108Z,61.07
2022-10-19T08:11:19.073Z,60.26
2022-10-19T08:12:19.064Z,60.10
2022-10-19T08:13:19.043Z,59.62
2022-10-19T08:14:19.041Z,61.55
2022-10-19T08:15:19.049Z,60.59
2022-10-19T08:16:19.023Z,60.10
2022-10-19T08:17:19.046Z,60.26
2022-10-19T08:18:19.050Z,58.97
2022-10-19T08:19:18.993Z,61.23
2022-10-19T08:20:19.002Z,61.23
2022-10-19T08:21:18.984Z,61.23
2022-10-19T08:22:18.973Z,59.78
2022-10-19T08:23:18.988Z,61.07
2022-10-19T08:24:18.988Z,62.04
2022-10-19T08:25:18.968Z,61.07
2022-10-19T08:26:18.950Z,60.91
2022-10-19T08:27:18.930Z,60.91
2022-10-19T08:28:18.931Z,59.62
2022-10-19T08:29:18.963Z,60.26
2022-10-19T08:30:18.919Z,59.46
2022-10-19T08:31:18.959Z,60.42
2022-10-19T08:32:18.894Z,59.78
2022-10-19T08:33:18.892Z,59.30
2022-10-19T08:34:18.900Z,59.62
2022-10-19T08:35:18.865Z,60.10
2022-10-19T08:36:18.864Z,61.39
2022-10-19T08:37:26.374Z,59.62
2022-10-19T08:38:19.846Z,60.59
2022-10-19T08:39:18.837Z,60.75
2022-10-19T08:40:18.835Z,60.26
2022-10-19T08:41:18.845Z,61.07
2022-10-19T08:42:18.811Z,61.55
2022-10-19T08:43:18.817Z,61.87
2022-10-19T08:44:18.799Z,60.10
2022-10-19T08:45:18.789Z,61.07
2022-10-19T08:46:18.800Z,61.39
2022-10-19T08:47:23.253Z,60.42
2022-10-19T08:48:18.783Z,61.71
2022-10-19T08:49:18.778Z,60.91
2022-10-19T08:50:18.753Z,58.01
2022-10-19T08:51:18.761Z,59.14
2022-10-19T08:52:18.761Z,61.07
2022-10-19T08:53:18.733Z,59.94
2022-10-19T08:54:18.722Z,59.30
2022-10-19T08:55:20.569Z,58.17
2022-10-19T08:56:38.863Z,59.94
2022-10-19T08:57:19.697Z,57.69
2022-10-19T08:58:18.688Z,60.26
2022-10-19T08:59:18.679Z,58.97
2022-10-19T09:00:18.682Z,59.62
2022-10-19T09:01:18.700Z,58.01
2022-10-19T09:02:18.660Z,57.04
2022-10-19T09:03:27.130Z,56.56
2022-10-19T09:04:19.652Z,55.27
2022-10-19T09:05:18.630Z,55.75
2022-10-19T09:06:18.628Z,56.56
2022-10-19T09:07:18.640Z,53.66
2022-10-19T09:08:18.606Z,53.66
2022-10-19T09:09:18.602Z,56.40
2022-10-19T09:10:18.589Z,56.24
2022-10-19T09:11:18.589Z,55.43
2022-10-19T09:12:18.577Z,54.79
2022-10-19T09:13:18.587Z,57.52
2022-10-19T09:14:18.554Z,56.07
2022-10-19T09:15:18.560Z,55.75
2022-10-19T09:16:18.538Z,55.75
2022-10-19T09:17:18.535Z,56.56
2022-10-19T09:18:18.549Z,58.49
2022-10-19T09:19:18.520Z,56.72
2022-10-19T09:20:18.561Z,53.50
2022-10-19T09:21:18.495Z,55.11
2022-10-19T09:22:18.498Z,57.04
2022-10-19T09:23:18.487Z,53.50
2022-10-19T09:24:18.498Z,57.04
2022-10-19T09:25:18.472Z,55.11
2022-10-19T09:26:18.464Z,56.40
2022-10-19T09:27:18.458Z,55.91
2022-10-19T09:28:18.465Z,55.59
2022-10-19T09:29:18.441Z,55.59
2022-10-19T09:30:18.513Z,55.91
2022-10-19T09:31:18.426Z,57.69
2022-10-19T09:32:18.424Z,55.43
2022-10-19T09:33:18.430Z,55.27
2022-10-19T09:34:18.411Z,53.66
2022-10-19T09:35:18.425Z,54.30
2022-10-19T09:36:23.047Z,54.46
2022-10-19T09:37:25.708Z,55.91
2022-10-19T09:38:19.384Z,53.66
2022-10-19T09:39:18.370Z,53.98
2022-10-19T09:40:18.419Z,54.79
2022-10-19T09:41:18.378Z,53.66
2022-10-19T09:42:18.352Z,55.43
2022-10-19T09:43:18.342Z,55.11
2022-10-19T09:44:18.330Z,55.59
2022-10-19T09:45:18.331Z,55.91
2022-10-19T09:46:20.316Z,55.43
2022-10-19T09:47:18.344Z,57.04
2022-10-19T09:48:18.326Z,55.75
2022-10-19T09:49:18.298Z,55.43
2022-10-19T09:50:18.386Z,54.95
2022-10-19T09:51:18.314Z,56.24
2022-10-19T09:52:18.290Z,55.11
2022-10-19T09:53:18.271Z,53.82
2022-10-19T09:54:18.286Z,55.59
2022-10-19T09:55:18.260Z,55.59
2022-10-19T09:56:18.250Z,53.50
2022-10-19T09:57:18.266Z,55.27
2022-10-19T09:58:18.259Z,56.07
2022-10-19T09:59:18.230Z,54.30
2022-10-19T10:00:18.221Z,55.91
2022-10-19T10:01:18.240Z,56.07
2022-10-19T10:02:18.224Z,55.59
2022-10-19T10:03:18.207Z,54.62
2022-10-19T10:04:18.200Z,57.52
2022-10-19T10:05:18.197Z,56.24
2022-10-19T10:06:18.209Z,56.56
2022-10-19T10:07:18.184Z,55.43
2022-10-19T10:08:18.166Z,54.62
2022-10-19T10:09:18.169Z,53.82
2022-10-19T10:10:18.167Z,55.91
2022-10-19T10:11:18.180Z,54.46
2022-10-19T10:12:18.143Z,55.11
2022-10-19T10:13:18.131Z,54.62
2022-10-19T10:14:18.131Z,54.95
2022-10-19T10:15:18.121Z,55.11
2022-10-19T10:16:18.124Z,55.59
2022-10-19T10:17:18.134Z,55.91
2022-10-19T10:18:18.113Z,55.91
2022-10-19T10:19:18.117Z,54.79
2022-10-19T10:20:18.090Z,57.52
2022-10-19T10:21:20.537Z,56.24
2022-10-19T10:22:18.095Z,57.04
2022-10-19T10:23:18.066Z,57.04
2022-10-19T10:24:18.062Z,56.24
2022-10-19T10:25:18.082Z,56.56
2022-10-19T10:26:18.041Z,57.69
2022-10-19T10:27:18.031Z,57.20
2022-10-19T10:28:18.033Z,56.07
2022-10-19T10:29:18.027Z,57.85
2022-10-19T10:30:18.011Z,56.56
2022-10-19T10:31:18.034Z,57.52
2022-10-19T10:32:17.999Z,55.75
2022-10-19T10:33:26.910Z,58.01
2022-10-19T10:34:23.164Z,57.04
2022-10-19T10:35:18.981Z,56.72
2022-10-19T10:36:18.007Z,57.36
2022-10-19T10:37:17.967Z,57.85
2022-10-19T10:38:17.951Z,57.85
2022-10-19T10:39:17.962Z,57.20
2022-10-19T10:40:21.330Z,57.69
2022-10-19T10:41:17.974Z,58.01
2022-10-19T10:42:17.929Z,57.36
2022-10-19T10:43:17.925Z,56.72
2022-10-19T10:44:17.934Z,58.97
2022-10-19T10:45:17.910Z,57.85
2022-10-19T10:46:17.916Z,58.81
2022-10-19T10:47:17.923Z,59.30
2022-10-19T10:48:17.907Z,58.17
2022-10-19T10:49:17.872Z,58.49
2022-10-19T10:50:17.868Z,59.46
2022-10-19T10:51:17.889Z,61.55
2022-10-19T10:52:17.855Z,58.97
2022-10-19T10:53:17.856Z,58.17
2022-10-19T10:54:17.863Z,59.62
2022-10-19T10:55:17.836Z,57.85
2022-10-19T10:56:17.818Z,59.78
2022-10-19T10:57:17.849Z,59.46
2022-10-19T10:58:17.816Z,60.10
2022-10-19T10:59:17.814Z,57.69
2022-10-19T11:00:17.799Z,57.85
2022-10-19T11:01:17.799Z,58.33
2022-10-19T11:02:17.810Z,57.69
2022-10-19T11:03:17.764Z,57.69
2022-10-19T11:04:17.763Z,59.62
2022-10-19T11:05:17.772Z,58.49
2022-10-19T11:06:17.795Z,57.85
2022-10-19T11:07:17.747Z,57.69
2022-10-19T11:08:17.737Z,59.78
2022-10-19T11:09:17.737Z,58.81
2022-10-19T11:10:17.755Z,58.97
2022-10-19T11:11:17.715Z,58.65
2022-10-19T11:12:17.712Z,57.04
2022-10-19T11:13:17.694Z,56.72
2022-10-19T11:14:17.689Z,58.33
2022-10-19T11:15:17.775Z,58.17
2022-10-19T11:16:17.729Z,59.62
2022-10-19T11:17:17.664Z,58.17
2022-10-19T11:18:17.706Z,57.85
2022-10-19T11:19:17.649Z,58.97
2022-10-19T11:20:17.659Z,58.97
2022-10-19T11:21:17.653Z,57.69
2022-10-19T11:22:17.655Z,57.69
2022-10-19T11:23:17.634Z,57.85
2022-10-19T11:24:17.662Z,59.14
2022-10-19T11:25:17.598Z,59.14
2022-10-19T11:26:17.616Z,58.65
2022-10-19T11:27:17.631Z,57.36
2022-10-19T11:28:17.578Z,56.88
2022-10-19T11:29:17.566Z,58.33
2022-10-19T11:30:17.571Z,58.81
2022-10-19T11:31:17.564Z,57.52
2022-10-19T11:32:17.554Z,57.20
2022-10-19T11:33:17.573Z,60.42
2022-10-19T11:34:18.060Z,60.10
2022-10-19T11:35:17.528Z,58.65
2022-10-19T11:36:17.522Z,59.14
2022-10-19T11:37:17.519Z,56.56
2022-10-19T11:38:20.705Z,57.04
2022-10-19T11:39:18.514Z,59.78
2022-10-19T11:40:21.842Z,59.14
2022-10-19T11:41:18.607Z,56.88
2022-10-19T11:42:17.482Z,57.04
2022-10-19T11:43:17.467Z,58.81
2022-10-19T11:44:17.537Z,58.17
2022-10-19T11:45:17.452Z,57.36
2022-10-19T11:46:17.452Z,59.46
2022-10-19T11:47:17.445Z,58.81
2022-10-19T11:48:17.440Z,59.62
2022-10-19T11:49:17.435Z,58.49
2022-10-19T11:50:17.459Z,58.49
2022-10-19T11:51:21.809Z,59.14
2022-10-19T11:52:17.402Z,59.78
2022-10-19T11:53:17.392Z,59.46
2022-10-19T11:54:17.389Z,59.14
2022-10-19T11:55:17.408Z,58.33
2022-10-19T11:56:17.391Z,57.04
2022-10-19T11:57:17.368Z,55.43
2022-10-19T11:58:17.359Z,59.30
2022-10-19T11:59:17.386Z,58.81
2022-10-19T12:00:37.704Z,56.07
2022-10-19T12:01:18.355Z,56.88
2022-10-19T12:02:17.441Z,60.10
2022-10-19T12:03:17.329Z,58.81
2022-10-19T12:04:17.317Z,58.97
2022-10-19T12:05:17.306Z,59.46
2022-10-19T12:06:17.298Z,58.81
2022-10-19T12:07:17.312Z,59.62
2022-10-19T12:08:17.299Z,58.65
2022-10-19T12:09:17.351Z,58.33
2022-10-19T12:10:17.274Z,59.14
2022-10-19T12:11:17.273Z,57.85
2022-10-19T12:12:17.286Z,58.97
2022-10-19T12:13:17.249Z,57.85
2022-10-19T12:14:17.252Z,55.75
2022-10-19T12:15:17.335Z,59.62
2022-10-19T12:16:17.233Z,58.65
2022-10-19T12:17:17.237Z,57.04
2022-10-19T12:18:17.243Z,58.01
2022-10-19T12:19:17.215Z,57.69
2022-10-19T12:20:19.709Z,59.62
2022-10-19T12:21:17.200Z,59.30
2022-10-19T12:22:17.192Z,58.65
2022-10-19T12:23:17.190Z,58.97
2022-10-19T12:24:17.175Z,57.52
2022-10-19T12:25:17.174Z,59.14
2022-10-19T12:27:17.149Z,57.20
2022-10-19T12:28:17.167Z,59.78
2022-10-19T12:29:17.127Z,59.78
2022-10-19T12:30:17.133Z,57.85
2022-10-19T12:31:17.118Z,57.69
2022-10-19T12:32:17.113Z,58.49
2022-10-19T12:33:17.123Z,59.94
2022-10-19T12:34:17.115Z,58.81
2022-10-19T12:35:17.219Z,58.33
2022-10-19T12:36:17.072Z,59.78
2022-10-19T12:37:17.072Z,58.65
2022-10-19T12:38:17.067Z,59.94
2022-10-19T12:39:17.064Z,59.30
2022-10-19T12:40:17.062Z,60.42
2022-10-19T12:41:17.037Z,59.62
2022-10-19T12:42:17.038Z,60.59
2022-10-19T12:43:17.022Z,59.14
2022-10-19T12:44:17.107Z,60.26
2022-10-19T12:45:17.024Z,60.75
2022-10-19T12:46:17.003Z,59.14
2022-10-19T12:47:17.008Z,59.30
2022-10-19T12:48:17.023Z,60.10
2022-10-19T12:49:16.978Z,59.30
2022-10-19T12:50:17.009Z,58.17
2022-10-19T12:51:16.957Z,58.97
2022-10-19T12:52:16.972Z,57.69
2022-10-19T12:53:16.998Z,59.14
2022-10-19T12:54:16.947Z,59.46
2022-10-19T12:55:16.950Z,59.14
2022-10-19T12:56:16.923Z,57.69
2022-10-19T12:57:21.902Z,58.49
2022-10-19T12:58:17.906Z,57.85
2022-10-19T12:59:16.931Z,57.52
2022-10-19T13:00:16.896Z,58.81
2022-10-19T13:01:16.977Z,58.17
2022-10-19T13:02:16.882Z,59.46
2022-10-19T13:03:16.887Z,60.26
2022-10-19T13:04:16.892Z,58.81